sensor_id;sensor_type;location;lat;lon;timestamp;pressure;altitude;pressure_sealevel;temperature;humidity
69219;BME280;56232;53.384;-2.732;2023-02-25T00:01:57;101458.65;;;3.39;36.95
69219;BME280;56232;53.384;-2.732;2023-02-25T00:04:25;101456.91;;;2.19;36.83
69219;BME280;56232;53.384;-2.732;2023-02-25T00:06:47;101456.00;;;2.65;36.78
69219;BME280;56232;53.384;-2.732;2023-02-25T00:09:13;101455.32;;;3.04;36.92
69219;BME280;56232;53.384;-2.732;2023-02-25T00:11:38;101454.11;;;2.97;36.97
69219;BME280;56232;53.384;-2.732;2023-02-25T00:14:04;101451.22;;;2.27;37.03
69219;BME280;56232;53.384;-2.732;2023-02-25T00:16:29;101449.86;;;2.17;37.07
69219;BME280;56232;53.384;-2.732;2023-02-25T00:18:56;101452.96;;;2.53;37.12
69219;BME280;56232;53.384;-2.732;2023-02-25T00:21:20;101456.38;;;2.45;37.12
69219;BME280;56232;53.384;-2.732;2023-02-25T00:23:47;101458.35;;;2.27;37.24
69219;BME280;56232;53.384;-2.732;2023-02-25T00:26:11;101461.03;;;2.16;37.31
69219;BME280;56232;53.384;-2.732;2023-02-25T00:28:37;101459.72;;;2.03;37.28
69219;BME280;56232;53.384;-2.732;2023-02-25T00:31:05;101462.71;;;1.92;37.30
69219;BME280;56232;53.384;-2.732;2023-02-25T00:33:27;101460.31;;;1.73;37.41
69219;BME280;56232;53.384;-2.732;2023-02-25T00:35:53;101459.42;;;2.68;37.51
69219;BME280;56232;53.384;-2.732;2023-02-25T00:38:18;101461.48;;;2.07;37.57
69219;BME280;56232;53.384;-2.732;2023-02-25T00:40:43;101461.06;;;1.44;37.55
69219;BME280;56232;53.384;-2.732;2023-02-25T00:43:09;101457.62;;;1.46;37.55
69219;BME280;56232;53.384;-2.732;2023-02-25T00:45:34;101461.20;;;1.39;37.50
69219;BME280;56232;53.384;-2.732;2023-02-25T00:48:05;101460.69;;;1.97;37.53
69219;BME280;56232;53.384;-2.732;2023-02-25T00:50:25;101463.48;;;1.97;37.59
69219;BME280;56232;53.384;-2.732;2023-02-25T00:52:51;101464.61;;;2.88;37.60
69219;BME280;56232;53.384;-2.732;2023-02-25T00:55:16;101466.26;;;2.23;37.68
69219;BME280;56232;53.384;-2.732;2023-02-25T00:57:41;101470.07;;;1.06;37.74
69219;BME280;56232;53.384;-2.732;2023-02-25T01:00:08;101472.26;;;2.08;37.76
69219;BME280;56232;53.384;-2.732;2023-02-25T01:02:32;101470.30;;;0.89;37.77
69219;BME280;56232;53.384;-2.732;2023-02-25T01:04:57;101469.44;;;1.49;37.76
69219;BME280;56232;53.384;-2.732;2023-02-25T01:07:23;101468.52;;;1.44;37.76
69219;BME280;56232;53.384;-2.732;2023-02-25T01:09:48;101469.52;;;1.84;37.80
69219;BME280;56232;53.384;-2.732;2023-02-25T01:12:14;101471.00;;;1.73;37.81
69219;BME280;56232;53.384;-2.732;2023-02-25T01:14:39;101468.12;;;1.10;37.92
69219;BME280;56232;53.384;-2.732;2023-02-25T01:17:05;101466.92;;;2.02;37.99
69219;BME280;56232;53.384;-2.732;2023-02-25T01:19:30;101469.55;;;1.48;37.98
69219;BME280;56232;53.384;-2.732;2023-02-25T01:21:57;101470.27;;;1.45;38.04
69219;BME280;56232;53.384;-2.732;2023-02-25T01:24:24;101472.68;;;0.35;38.02
69219;BME280;56232;53.384;-2.732;2023-02-25T01:26:49;101476.28;;;1.50;37.94
69219;BME280;56232;53.384;-2.732;2023-02-25T01:29:14;101477.18;;;0.89;37.96
69219;BME280;56232;53.384;-2.732;2023-02-25T01:31:39;101476.76;;;0.81;37.96
69219;BME280;56232;53.384;-2.732;2023-02-25T01:34:06;101478.78;;;1.21;38.02
69219;BME280;56232;53.384;-2.732;2023-02-25T01:36:30;101480.83;;;1.17;38.00
69219;BME280;56232;53.384;-2.732;2023-02-25T01:38:55;101488.30;;;1.57;38.10
69219;BME280;56232;53.384;-2.732;2023-02-25T01:41:20;101488.99;;;1.00;38.14
69219;BME280;56232;53.384;-2.732;2023-02-25T01:46:11;101489.03;;;1.31;38.23
69219;BME280;56232;53.384;-2.732;2023-02-25T01:48:39;101490.90;;;1.26;38.24
69219;BME280;56232;53.384;-2.732;2023-02-25T01:51:06;101491.00;;;1.24;38.24
69219;BME280;56232;53.384;-2.732;2023-02-25T01:53:30;101490.58;;;1.32;38.17
69219;BME280;56232;53.384;-2.732;2023-02-25T01:55:55;101487.15;;;0.85;38.15
69219;BME280;56232;53.384;-2.732;2023-02-25T01:58:18;101481.94;;;1.29;38.20
69219;BME280;56232;53.384;-2.732;2023-02-25T02:00:44;101479.57;;;0.72;38.28
69219;BME280;56232;53.384;-2.732;2023-02-25T02:03:09;101480.27;;;1.21;38.34
69219;BME280;56232;53.384;-2.732;2023-02-25T02:05:45;101482.78;;;0.81;38.44
69219;BME280;56232;53.384;-2.732;2023-02-25T02:08:00;101479.64;;;1.62;38.29
69219;BME280;56232;53.384;-2.732;2023-02-25T02:10:25;101477.09;;;1.35;38.15
69219;BME280;56232;53.384;-2.732;2023-02-25T02:12:50;101474.48;;;1.46;37.97
69219;BME280;56232;53.384;-2.732;2023-02-25T02:15:16;101474.41;;;1.37;38.03
69219;BME280;56232;53.384;-2.732;2023-02-25T02:17:44;101477.94;;;1.47;37.89
69219;BME280;56232;53.384;-2.732;2023-02-25T02:20:13;101478.32;;;1.25;38.06
69219;BME280;56232;53.384;-2.732;2023-02-25T02:22:38;101484.58;;;1.11;38.17
69219;BME280;56232;53.384;-2.732;2023-02-25T02:27:25;101481.74;;;1.59;38.26
69219;BME280;56232;53.384;-2.732;2023-02-25T02:29:58;101477.68;;;1.04;38.28
69219;BME280;56232;53.384;-2.732;2023-02-25T02:32:22;101475.42;;;0.98;38.33
69219;BME280;56232;53.384;-2.732;2023-02-25T02:34:47;101476.22;;;0.85;38.41
69219;BME280;56232;53.384;-2.732;2023-02-25T02:37:13;101472.24;;;0.26;38.50
69219;BME280;56232;53.384;-2.732;2023-02-25T02:39:39;101476.50;;;1.17;38.53
69219;BME280;56232;53.384;-2.732;2023-02-25T02:42:01;101477.54;;;1.66;38.59
69219;BME280;56232;53.384;-2.732;2023-02-25T02:44:27;101481.28;;;0.44;38.67
69219;BME280;56232;53.384;-2.732;2023-02-25T02:46:51;101484.91;;;0.87;38.74
69219;BME280;56232;53.384;-2.732;2023-02-25T02:49:17;101491.12;;;1.41;38.80
69219;BME280;56232;53.384;-2.732;2023-02-25T02:51:43;101491.85;;;1.39;38.82
69219;BME280;56232;53.384;-2.732;2023-02-25T02:54:07;101494.57;;;1.37;38.84
69219;BME280;56232;53.384;-2.732;2023-02-25T02:56:32;101496.93;;;0.26;38.77
69219;BME280;56232;53.384;-2.732;2023-02-25T02:59:00;101499.85;;;0.69;38.81
69219;BME280;56232;53.384;-2.732;2023-02-25T03:01:24;101503.28;;;0.70;38.82
69219;BME280;56232;53.384;-2.732;2023-02-25T03:03:48;101502.15;;;1.16;38.90
69219;BME280;56232;53.384;-2.732;2023-02-25T03:06:15;101504.54;;;0.03;38.93
69219;BME280;56232;53.384;-2.732;2023-02-25T03:08:41;101503.10;;;0.54;38.94
69219;BME280;56232;53.384;-2.732;2023-02-25T03:11:03;101506.46;;;0.48;38.94
69219;BME280;56232;53.384;-2.732;2023-02-25T03:13:28;101508.57;;;1.14;38.94
69219;BME280;56232;53.384;-2.732;2023-02-25T03:15:54;101508.03;;;0.54;38.88
69219;BME280;56232;53.384;-2.732;2023-02-25T03:18:23;101507.35;;;0.00;38.87
69219;BME280;56232;53.384;-2.732;2023-02-25T03:20:46;101510.02;;;0.48;38.85
69219;BME280;56232;53.384;-2.732;2023-02-25T03:23:14;101510.25;;;-0.13;38.99
69219;BME280;56232;53.384;-2.732;2023-02-25T03:25:39;101514.97;;;-0.13;39.12
69219;BME280;56232;53.384;-2.732;2023-02-25T03:28:04;101508.62;;;1.18;38.93
69219;BME280;56232;53.384;-2.732;2023-02-25T03:30:30;101513.51;;;1.20;38.94
69219;BME280;56232;53.384;-2.732;2023-02-25T03:32:54;101517.79;;;-0.04;38.94
69219;BME280;56232;53.384;-2.732;2023-02-25T03:35:18;101519.47;;;0.34;39.15
69219;BME280;56232;53.384;-2.732;2023-02-25T03:37:45;101518.08;;;0.31;39.15
69219;BME280;56232;53.384;-2.732;2023-02-25T03:40:10;101519.73;;;-0.17;39.14
69219;BME280;56232;53.384;-2.732;2023-02-25T03:42:34;101519.42;;;0.32;39.12
69219;BME280;56232;53.384;-2.732;2023-02-25T03:45:02;101520.95;;;0.84;39.11
69219;BME280;56232;53.384;-2.732;2023-02-25T03:47:25;101526.47;;;0.14;39.25
69219;BME280;56232;53.384;-2.732;2023-02-25T03:49:55;101525.52;;;1.22;39.22
69219;BME280;56232;53.384;-2.732;2023-02-25T03:52:18;101523.08;;;0.63;39.38
69219;BME280;56232;53.384;-2.732;2023-02-25T03:54:40;101520.39;;;0.60;39.37
69219;BME280;56232;53.384;-2.732;2023-02-25T03:57:06;101528.51;;;-0.02;39.38
69219;BME280;56232;53.384;-2.732;2023-02-25T03:59:31;101530.18;;;-0.43;39.38
69219;BME280;56232;53.384;-2.732;2023-02-25T04:01:58;101526.67;;;0.82;39.23
69219;BME280;56232;53.384;-2.732;2023-02-25T04:04:22;101527.78;;;0.39;39.18
69219;BME280;56232;53.384;-2.732;2023-02-25T04:06:48;101530.07;;;0.56;38.98
69219;BME280;56232;53.384;-2.732;2023-02-25T04:09:13;101534.38;;;0.19;38.91
69219;BME280;56232;53.384;-2.732;2023-02-25T04:11:39;101534.80;;;0.86;38.80
69219;BME280;56232;53.384;-2.732;2023-02-25T04:14:04;101534.41;;;0.96;38.74
69219;BME280;56232;53.384;-2.732;2023-02-25T04:16:30;101537.72;;;1.62;38.66
69219;BME280;56232;53.384;-2.732;2023-02-25T04:19:00;101544.57;;;1.50;38.77
69219;BME280;56232;53.384;-2.732;2023-02-25T04:21:26;101545.20;;;0.91;38.87
69219;BME280;56232;53.384;-2.732;2023-02-25T04:23:45;101542.73;;;0.57;38.71
69219;BME280;56232;53.384;-2.732;2023-02-25T04:26:11;101540.81;;;1.12;38.61
69219;BME280;56232;53.384;-2.732;2023-02-25T04:28:36;101543.80;;;1.03;38.65
69219;BME280;56232;53.384;-2.732;2023-02-25T04:31:02;101547.90;;;0.57;38.64
69219;BME280;56232;53.384;-2.732;2023-02-25T04:33:27;101552.12;;;0.55;38.53
69219;BME280;56232;53.384;-2.732;2023-02-25T04:35:54;101551.76;;;0.87;38.55
69219;BME280;56232;53.384;-2.732;2023-02-25T04:38:18;101551.36;;;0.70;38.66
69219;BME280;56232;53.384;-2.732;2023-02-25T04:40:44;101544.81;;;0.56;38.76
69219;BME280;56232;53.384;-2.732;2023-02-25T04:43:09;101545.66;;;0.52;38.83
69219;BME280;56232;53.384;-2.732;2023-02-25T04:45:35;101547.68;;;1.13;38.85
69219;BME280;56232;53.384;-2.732;2023-02-25T04:48:00;101545.70;;;0.59;38.89
69219;BME280;56232;53.384;-2.732;2023-02-25T04:50:26;101553.43;;;0.35;38.84
69219;BME280;56232;53.384;-2.732;2023-02-25T04:52:51;101560.52;;;0.54;38.53
69219;BME280;56232;53.384;-2.732;2023-02-25T04:55:16;101560.46;;;1.23;38.63
69219;BME280;56232;53.384;-2.732;2023-02-25T04:57:41;101556.37;;;1.49;38.29
69219;BME280;56232;53.384;-2.732;2023-02-25T05:00:12;101556.29;;;1.47;38.20
69219;BME280;56232;53.384;-2.732;2023-02-25T05:02:32;101557.72;;;1.56;38.13
69219;BME280;56232;53.384;-2.732;2023-02-25T05:04:58;101556.49;;;1.00;38.16
69219;BME280;56232;53.384;-2.732;2023-02-25T05:07:23;101555.19;;;0.92;38.20
69219;BME280;56232;53.384;-2.732;2023-02-25T05:09:49;101564.46;;;0.83;38.30
69219;BME280;56232;53.384;-2.732;2023-02-25T05:12:14;101573.00;;;0.74;38.36
69219;BME280;56232;53.384;-2.732;2023-02-25T05:14:40;101570.99;;;1.16;38.37
69219;BME280;56232;53.384;-2.732;2023-02-25T05:17:05;101575.45;;;0.63;38.45
69219;BME280;56232;53.384;-2.732;2023-02-25T05:19:31;101573.23;;;0.99;38.55
69219;BME280;56232;53.384;-2.732;2023-02-25T05:21:56;101570.97;;;0.94;38.52
69219;BME280;56232;53.384;-2.732;2023-02-25T05:24:21;101571.73;;;0.77;38.65
69219;BME280;56232;53.384;-2.732;2023-02-25T05:26:47;101568.90;;;0.18;38.73
69219;BME280;56232;53.384;-2.732;2023-02-25T05:29:12;101565.37;;;0.61;38.76
69219;BME280;56232;53.384;-2.732;2023-02-25T05:31:38;101563.74;;;-0.04;38.88
69219;BME280;56232;53.384;-2.732;2023-02-25T05:34:03;101567.16;;;0.48;38.93
69219;BME280;56232;53.384;-2.732;2023-02-25T05:36:29;101570.89;;;0.03;38.89
69219;BME280;56232;53.384;-2.732;2023-02-25T05:38:57;101572.65;;;0.21;38.80
69219;BME280;56232;53.384;-2.732;2023-02-25T05:41:20;101574.25;;;0.73;38.82
69219;BME280;56232;53.384;-2.732;2023-02-25T05:43:46;101571.69;;;1.50;38.77
69219;BME280;56232;53.384;-2.732;2023-02-25T05:46:12;101579.44;;;0.60;38.65
69219;BME280;56232;53.384;-2.732;2023-02-25T05:48:37;101578.28;;;0.80;38.36
69219;BME280;56232;53.384;-2.732;2023-02-25T05:51:05;101573.33;;;1.26;38.28
69219;BME280;56232;53.384;-2.732;2023-02-25T05:53:27;101581.76;;;0.71;38.31
69219;BME280;56232;53.384;-2.732;2023-02-25T05:55:53;101583.54;;;0.68;38.31
69219;BME280;56232;53.384;-2.732;2023-02-25T05:58:18;101580.00;;;0.59;38.42
69219;BME280;56232;53.384;-2.732;2023-02-25T06:00:44;101583.72;;;0.44;38.47
69219;BME280;56232;53.384;-2.732;2023-02-25T06:03:09;101588.13;;;0.41;38.51
69219;BME280;56232;53.384;-2.732;2023-02-25T06:05:38;101584.62;;;0.85;38.55
69219;BME280;56232;53.384;-2.732;2023-02-25T06:08:00;101591.04;;;1.31;38.61
69219;BME280;56232;53.384;-2.732;2023-02-25T06:10:26;101591.26;;;0.71;38.59
69219;BME280;56232;53.384;-2.732;2023-02-25T06:12:51;101587.23;;;0.57;38.63
69219;BME280;56232;53.384;-2.732;2023-02-25T06:15:17;101587.83;;;-0.01;38.68
69219;BME280;56232;53.384;-2.732;2023-02-25T06:17:42;101590.32;;;0.34;38.79
69219;BME280;56232;53.384;-2.732;2023-02-25T06:20:08;101594.49;;;-0.13;38.83
69219;BME280;56232;53.384;-2.732;2023-02-25T06:22:33;101598.24;;;0.33;38.80
69219;BME280;56232;53.384;-2.732;2023-02-25T06:24:59;101600.06;;;0.89;38.86
69219;BME280;56232;53.384;-2.732;2023-02-25T06:27:25;101599.10;;;0.81;38.83
69219;BME280;56232;53.384;-2.732;2023-02-25T06:29:50;101610.45;;;0.68;38.93
69219;BME280;56232;53.384;-2.732;2023-02-25T06:32:16;101613.28;;;0.06;39.01
69219;BME280;56232;53.384;-2.732;2023-02-25T06:34:41;101616.49;;;0.03;38.97
69219;BME280;56232;53.384;-2.732;2023-02-25T06:37:07;101620.61;;;-0.04;39.04
69219;BME280;56232;53.384;-2.732;2023-02-25T06:39:32;101620.76;;;0.03;38.88
69219;BME280;56232;53.384;-2.732;2023-02-25T06:41:57;101624.43;;;1.02;39.03
69219;BME280;56232;53.384;-2.732;2023-02-25T06:44:22;101625.89;;;-0.09;39.01
69219;BME280;56232;53.384;-2.732;2023-02-25T06:46:49;101626.04;;;0.52;38.96
69219;BME280;56232;53.384;-2.732;2023-02-25T06:49:13;101625.73;;;0.42;39.05
69219;BME280;56232;53.384;-2.732;2023-02-25T06:51:39;101630.24;;;0.44;39.04
69219;BME280;56232;53.384;-2.732;2023-02-25T06:54:04;101633.07;;;0.52;39.05
69219;BME280;56232;53.384;-2.732;2023-02-25T06:56:30;101636.25;;;0.60;38.89
69219;BME280;56232;53.384;-2.732;2023-02-25T06:58:56;101636.37;;;0.66;38.89
69219;BME280;56232;53.384;-2.732;2023-02-25T07:01:20;101631.15;;;0.08;38.88
69219;BME280;56232;53.384;-2.732;2023-02-25T07:03:46;101630.39;;;0.24;38.83
69219;BME280;56232;53.384;-2.732;2023-02-25T07:06:11;101622.49;;;0.39;38.62
69219;BME280;56232;53.384;-2.732;2023-02-25T07:08:37;101621.69;;;0.86;38.62
69219;BME280;56232;53.384;-2.732;2023-02-25T07:11:11;101627.49;;;-0.27;38.69
69219;BME280;56232;53.384;-2.732;2023-02-25T07:13:27;101628.94;;;0.43;38.63
69219;BME280;56232;53.384;-2.732;2023-02-25T07:15:55;101635.32;;;1.16;38.53
69219;BME280;56232;53.384;-2.732;2023-02-25T07:18:19;101635.74;;;1.36;38.57
69219;BME280;56232;53.384;-2.732;2023-02-25T07:20:45;101634.77;;;0.99;38.29
69219;BME280;56232;53.384;-2.732;2023-02-25T07:23:10;101641.60;;;0.78;38.15
69219;BME280;56232;53.384;-2.732;2023-02-25T07:25:37;101641.70;;;1.08;37.85
69219;BME280;56232;53.384;-2.732;2023-02-25T07:28:02;101642.70;;;1.17;37.75
69219;BME280;56232;53.384;-2.732;2023-02-25T07:30:27;101649.37;;;1.69;37.67
69219;BME280;56232;53.384;-2.732;2023-02-25T07:32:54;101649.86;;;1.72;37.78
69219;BME280;56232;53.384;-2.732;2023-02-25T07:35:19;101652.88;;;1.29;37.74
69219;BME280;56232;53.384;-2.732;2023-02-25T07:37:45;101656.51;;;1.35;37.71
69219;BME280;56232;53.384;-2.732;2023-02-25T07:40:11;101660.41;;;1.42;37.67
69219;BME280;56232;53.384;-2.732;2023-02-25T07:42:36;101665.26;;;1.64;37.58
69219;BME280;56232;53.384;-2.732;2023-02-25T07:45:01;101665.83;;;1.20;37.50
69219;BME280;56232;53.384;-2.732;2023-02-25T07:47:27;101668.47;;;1.31;37.47
69219;BME280;56232;53.384;-2.732;2023-02-25T07:49:51;101672.67;;;1.42;37.44
69219;BME280;56232;53.384;-2.732;2023-02-25T07:52:17;101678.48;;;2.04;37.40
69219;BME280;56232;53.384;-2.732;2023-02-25T07:54:42;101675.73;;;1.65;37.30
69219;BME280;56232;53.384;-2.732;2023-02-25T07:57:08;101680.13;;;1.30;37.21
69219;BME280;56232;53.384;-2.732;2023-02-25T07:59:34;101680.36;;;1.50;36.93
69219;BME280;56232;53.384;-2.732;2023-02-25T08:02:00;101681.34;;;2.69;36.65
69219;BME280;56232;53.384;-2.732;2023-02-25T08:04:25;101682.53;;;2.78;36.76
69219;BME280;56232;53.384;-2.732;2023-02-25T08:06:51;101687.19;;;1.80;36.55
69219;BME280;56232;53.384;-2.732;2023-02-25T08:09:16;101694.41;;;2.02;36.54
69219;BME280;56232;53.384;-2.732;2023-02-25T08:11:41;101695.06;;;2.81;36.33
69219;BME280;56232;53.384;-2.732;2023-02-25T08:14:06;101695.35;;;2.71;36.20
69219;BME280;56232;53.384;-2.732;2023-02-25T08:16:32;101698.57;;;2.93;36.13
69219;BME280;56232;53.384;-2.732;2023-02-25T08:18:58;101697.87;;;2.92;36.14
69219;BME280;56232;53.384;-2.732;2023-02-25T08:21:23;101694.61;;;2.99;36.16
69219;BME280;56232;53.384;-2.732;2023-02-25T08:23:49;101693.80;;;3.02;36.24
69219;BME280;56232;53.384;-2.732;2023-02-25T08:26:15;101692.24;;;3.11;36.17
69219;BME280;56232;53.384;-2.732;2023-02-25T08:28:39;101697.88;;;3.41;36.02
69219;BME280;56232;53.384;-2.732;2023-02-25T08:31:07;101703.08;;;3.87;35.80
69219;BME280;56232;53.384;-2.732;2023-02-25T08:33:31;101701.92;;;3.57;35.45
69219;BME280;56232;53.384;-2.732;2023-02-25T08:36:05;101705.70;;;4.96;35.12
69219;BME280;56232;53.384;-2.732;2023-02-25T08:38:22;101705.45;;;4.26;34.97
69219;BME280;56232;53.384;-2.732;2023-02-25T08:40:47;101707.45;;;5.07;34.87
69219;BME280;56232;53.384;-2.732;2023-02-25T08:43:13;101707.44;;;4.92;34.71
69219;BME280;56232;53.384;-2.732;2023-02-25T08:45:40;101708.54;;;4.95;34.54
69219;BME280;56232;53.384;-2.732;2023-02-25T08:48:04;101708.98;;;4.87;34.60
69219;BME280;56232;53.384;-2.732;2023-02-25T08:50:29;101709.32;;;4.90;34.71
69219;BME280;56232;53.384;-2.732;2023-02-25T08:52:55;101710.58;;;5.05;34.73
69219;BME280;56232;53.384;-2.732;2023-02-25T08:55:21;101717.02;;;4.52;34.61
69219;BME280;56232;53.384;-2.732;2023-02-25T08:57:46;101721.63;;;4.42;34.33
69219;BME280;56232;53.384;-2.732;2023-02-25T09:00:13;101717.86;;;4.48;34.29
69219;BME280;56232;53.384;-2.732;2023-02-25T09:02:38;101720.36;;;4.83;34.05
69219;BME280;56232;53.384;-2.732;2023-02-25T09:05:04;101718.43;;;5.44;34.03
69219;BME280;56232;53.384;-2.732;2023-02-25T09:07:30;101719.81;;;5.49;33.91
69219;BME280;56232;53.384;-2.732;2023-02-25T09:09:56;101720.50;;;6.26;34.25
69219;BME280;56232;53.384;-2.732;2023-02-25T09:12:21;101735.51;;;4.43;34.36
69219;BME280;56232;53.384;-2.732;2023-02-25T09:14:46;101735.68;;;5.03;34.09
69219;BME280;56232;53.384;-2.732;2023-02-25T09:17:11;101732.73;;;5.29;34.45
69219;BME280;56232;53.384;-2.732;2023-02-25T09:19:37;101741.51;;;5.42;34.17
69219;BME280;56232;53.384;-2.732;2023-02-25T09:22:03;101743.62;;;5.59;34.27
69219;BME280;56232;53.384;-2.732;2023-02-25T09:24:28;101750.61;;;6.00;33.94
69219;BME280;56232;53.384;-2.732;2023-02-25T09:26:55;101747.63;;;5.16;33.82
69219;BME280;56232;53.384;-2.732;2023-02-25T09:29:20;101748.80;;;6.11;33.58
69219;BME280;56232;53.384;-2.732;2023-02-25T09:31:46;101745.46;;;6.35;33.25
69219;BME280;56232;53.384;-2.732;2023-02-25T09:34:12;101747.72;;;6.22;33.09
69219;BME280;56232;53.384;-2.732;2023-02-25T09:36:37;101746.15;;;6.73;33.48
69219;BME280;56232;53.384;-2.732;2023-02-25T09:39:03;101749.52;;;6.70;33.44
69219;BME280;56232;53.384;-2.732;2023-02-25T09:41:32;101747.37;;;5.84;34.04
69219;BME280;56232;53.384;-2.732;2023-02-25T09:44:01;101745.10;;;5.73;34.09
69219;BME280;56232;53.384;-2.732;2023-02-25T09:46:20;101746.68;;;5.80;33.88
69219;BME280;56232;53.384;-2.732;2023-02-25T09:48:52;101750.90;;;5.92;34.16
69219;BME280;56232;53.384;-2.732;2023-02-25T09:51:17;101752.82;;;5.93;33.99
69219;BME280;56232;53.384;-2.732;2023-02-25T09:53:40;101753.14;;;6.58;33.67
69219;BME280;56232;53.384;-2.732;2023-02-25T09:56:04;101747.31;;;5.66;33.98
69219;BME280;56232;53.384;-2.732;2023-02-25T09:58:32;101749.42;;;6.17;33.92
69219;BME280;56232;53.384;-2.732;2023-02-25T10:01:05;101747.88;;;5.49;33.80
69219;BME280;56232;53.384;-2.732;2023-02-25T10:03:23;101749.79;;;6.20;33.15
69219;BME280;56232;53.384;-2.732;2023-02-25T10:05:52;101750.09;;;6.99;33.58
69219;BME280;56232;53.384;-2.732;2023-02-25T10:08:16;101750.43;;;6.30;33.50
69219;BME280;56232;53.384;-2.732;2023-02-25T10:10:43;101747.63;;;7.63;33.24
69219;BME280;56232;53.384;-2.732;2023-02-25T10:13:14;101741.51;;;8.09;31.94
69219;BME280;56232;53.384;-2.732;2023-02-25T10:15:37;101742.39;;;9.31;30.75
69219;BME280;56232;53.384;-2.732;2023-02-25T10:18:04;101744.87;;;10.28;29.81
69219;BME280;56232;53.384;-2.732;2023-02-25T10:20:33;101745.28;;;9.66;29.91
69219;BME280;56232;53.384;-2.732;2023-02-25T10:22:52;101746.90;;;9.52;30.22
69219;BME280;56232;53.384;-2.732;2023-02-25T10:25:16;101745.53;;;8.39;31.66
69219;BME280;56232;53.384;-2.732;2023-02-25T10:27:43;101748.82;;;7.42;32.30
69219;BME280;56232;53.384;-2.732;2023-02-25T10:30:11;101751.26;;;7.75;32.48
69219;BME280;56232;53.384;-2.732;2023-02-25T10:32:33;101746.33;;;7.34;32.64
69219;BME280;56232;53.384;-2.732;2023-02-25T10:34:59;101744.16;;;8.49;32.26
69219;BME280;56232;53.384;-2.732;2023-02-25T10:37:25;101741.69;;;8.26;32.78
69219;BME280;56232;53.384;-2.732;2023-02-25T10:39:49;101748.24;;;8.59;32.72
69219;BME280;56232;53.384;-2.732;2023-02-25T10:42:14;101757.61;;;8.54;32.22
69219;BME280;56232;53.384;-2.732;2023-02-25T10:44:38;101757.35;;;9.68;31.96
69219;BME280;56232;53.384;-2.732;2023-02-25T10:47:05;101756.46;;;9.07;32.03
69219;BME280;56232;53.384;-2.732;2023-02-25T10:49:30;101767.77;;;9.81;31.56
69219;BME280;56232;53.384;-2.732;2023-02-25T10:51:58;101773.42;;;9.37;32.37
69219;BME280;56232;53.384;-2.732;2023-02-25T10:54:22;101773.73;;;9.13;32.00
69219;BME280;56232;53.384;-2.732;2023-02-25T10:56:47;101771.17;;;9.46;33.14
69219;BME280;56232;53.384;-2.732;2023-02-25T10:59:23;101773.49;;;9.65;33.13
69219;BME280;56232;53.384;-2.732;2023-02-25T11:01:40;101767.98;;;10.20;32.59
69219;BME280;56232;53.384;-2.732;2023-02-25T11:04:08;101764.14;;;10.25;32.49
69219;BME280;56232;53.384;-2.732;2023-02-25T11:06:31;101763.78;;;9.79;32.55
69219;BME280;56232;53.384;-2.732;2023-02-25T11:08:57;101771.03;;;9.22;32.73
69219;BME280;56232;53.384;-2.732;2023-02-25T11:11:23;101769.92;;;9.74;32.50
69219;BME280;56232;53.384;-2.732;2023-02-25T11:13:55;101763.81;;;10.16;32.14
69219;BME280;56232;53.384;-2.732;2023-02-25T11:16:13;101763.65;;;9.59;33.23
69219;BME280;56232;53.384;-2.732;2023-02-25T11:18:38;101765.95;;;9.28;33.25
69219;BME280;56232;53.384;-2.732;2023-02-25T11:21:05;101767.54;;;9.27;33.92
69219;BME280;56232;53.384;-2.732;2023-02-25T11:23:33;101769.66;;;9.04;33.93
69219;BME280;56232;53.384;-2.732;2023-02-25T11:25:56;101765.52;;;8.73;33.90
69219;BME280;56232;53.384;-2.732;2023-02-25T11:28:26;101772.37;;;9.51;33.62
69219;BME280;56232;53.384;-2.732;2023-02-25T11:30:46;101771.30;;;8.94;33.69
69219;BME280;56232;53.384;-2.732;2023-02-25T11:33:20;101765.60;;;8.82;33.89
69219;BME280;56232;53.384;-2.732;2023-02-25T11:35:38;101763.91;;;8.87;33.66
69219;BME280;56232;53.384;-2.732;2023-02-25T11:38:13;101765.03;;;8.63;34.56
69219;BME280;56232;53.384;-2.732;2023-02-25T11:40:32;101762.68;;;7.87;34.77
69219;BME280;56232;53.384;-2.732;2023-02-25T11:43:02;101760.16;;;8.92;34.55
69219;BME280;56232;53.384;-2.732;2023-02-25T11:45:21;101760.01;;;9.22;34.29
69219;BME280;56232;53.384;-2.732;2023-02-25T11:47:47;101765.54;;;9.53;33.68
69219;BME280;56232;53.384;-2.732;2023-02-25T11:50:20;101761.90;;;9.09;34.04
69219;BME280;56232;53.384;-2.732;2023-02-25T11:52:42;101763.77;;;9.36;34.01
69219;BME280;56232;53.384;-2.732;2023-02-25T11:55:15;101758.47;;;9.55;33.31
69219;BME280;56232;53.384;-2.732;2023-02-25T11:57:36;101759.98;;;9.55;33.58
69219;BME280;56232;53.384;-2.732;2023-02-25T12:00:04;101757.29;;;10.18;33.74
69219;BME280;56232;53.384;-2.732;2023-02-25T12:02:26;101758.30;;;9.25;33.66
69219;BME280;56232;53.384;-2.732;2023-02-25T12:05:00;101753.70;;;8.80;34.38
69219;BME280;56232;53.384;-2.732;2023-02-25T12:07:29;101752.87;;;10.46;34.15
69219;BME280;56232;53.384;-2.732;2023-02-25T12:09:47;101758.26;;;9.71;33.11
69219;BME280;56232;53.384;-2.732;2023-02-25T12:24:21;101757.00;;;8.83;34.25
69219;BME280;56232;53.384;-2.732;2023-02-25T12:29:12;101749.05;;;9.50;34.37
69219;BME280;56232;53.384;-2.732;2023-02-25T12:31:43;101750.00;;;8.99;33.46
69219;BME280;56232;53.384;-2.732;2023-02-25T12:34:04;101751.82;;;8.85;34.28
69219;BME280;56232;53.384;-2.732;2023-02-25T12:36:33;101750.80;;;8.82;34.24
69219;BME280;56232;53.384;-2.732;2023-02-25T12:41:23;101750.73;;;9.60;34.01
69219;BME280;56232;53.384;-2.732;2023-02-25T12:43:44;101751.08;;;8.17;35.22
69219;BME280;56232;53.384;-2.732;2023-02-25T12:46:12;101753.83;;;7.80;35.72
69219;BME280;56232;53.384;-2.732;2023-02-25T12:48:45;101755.28;;;7.89;35.73
69219;BME280;56232;53.384;-2.732;2023-02-25T12:51:08;101755.79;;;8.79;35.30
69219;BME280;56232;53.384;-2.732;2023-02-25T12:53:29;101759.45;;;7.71;35.66
69219;BME280;56232;53.384;-2.732;2023-02-25T12:55:58;101755.00;;;8.79;35.25
69219;BME280;56232;53.384;-2.732;2023-02-25T12:58:24;101753.38;;;8.20;35.22
69219;BME280;56232;53.384;-2.732;2023-02-25T13:03:16;101756.07;;;8.90;34.61
69219;BME280;56232;53.384;-2.732;2023-02-25T13:08:10;101767.95;;;9.32;34.25